| time (UTC) | temp F | wind direction | speed knots | gust knots | rain 1hr in | rain 24hr in | rain mn in | humidity % | barometer mb |
| 20260505091558 | 52 | 0 | 0.0 | 0.9 | 0.00 | 0.00 | 0.00 | 89 | 1013.3 |
| 20260505090058 | 52 | 0 | 0.0 | 0.0 | 0.00 | 0.00 | 0.00 | 89 | 1013.1 |
| 20260505084603 | 52 | 0 | 0.0 | 0.0 | 0.00 | 0.00 | 0.00 | 89 | 1012.9 |
| 20260505083112 | 52 | 0 | 0.0 | 0.0 | 0.00 | 0.00 | 0.00 | 89 | 1012.8 |
| 20260505081606 | 53 | 0 | 0.0 | 0.9 | 0.00 | 0.00 | 0.00 | 89 | 1012.7 |
| 20260505080055 | 53 | 0 | 0.0 | 0.9 | 0.00 | 0.00 | 0.00 | 89 | 1012.7 |
| 20260505074556 | 53 | 0 | 0.0 | 0.0 | 0.00 | 0.00 | 0.00 | 88 | 1012.7 |
| 20260505073059 | 54 | 0 | 0.0 | 1.7 | 0.00 | 0.00 | 0.00 | 86 | 1012.5 |
| 20260505071556 | 54 | 22 | 0.0 | 3.5 | 0.00 | 0.00 | 0.00 | 87 | 1012.2 |
| 20260505070053 | 54 | 0 | 0.0 | 0.9 | 0.00 | 0.00 | 0.00 | 87 | 1012.1 |
| 20260505064631 | 54 | 0 | 0.0 | 1.7 | 0.00 | 0.00 | 0.00 | 86 | 1011.9 |
| 20260505063058 | 55 | 0 | 0.0 | 0.9 | 0.00 | 0.00 | 0.00 | 82 | 1011.9 |
| 20260505061600 | 56 | 0 | 0.0 | 1.7 | 0.00 | 0.00 | 0.00 | 81 | 1011.7 |
| 20260505060056 | 57 | 0 | 0.0 | 0.9 | 0.00 | 0.00 | 0.00 | 80 | 1011.5 |
| 20260505054554 | 57 | 0 | 0.0 | 0.0 | 0.00 | 0.00 | 0.00 | 80 | 1011.3 |
| 20260505053057 | 57 | 0 | 0.0 | 0.0 | 0.00 | 0.00 | 0.00 | 80 | 1011.3 |
| 20260505051554 | 58 | 0 | 0.0 | 0.0 | 0.00 | 0.00 | 0.00 | 79 | 1011.2 |
| 20260505050106 | 58 | 0 | 0.0 | 1.7 | 0.00 | 0.00 | 0.00 | 78 | 1010.9 |
| 20260505041602 | 61 | 0 | 0.9 | 1.7 | 0.00 | 0.00 | 0.00 | 73 | 1010.5 |
| 20260505040100 | 61 | 0 | 0.0 | 1.7 | 0.00 | 0.00 | 0.00 | 72 | 1010.5 |
| 20260505034608 | 61 | 0 | 0.0 | 1.7 | 0.00 | 0.00 | 0.00 | 71 | 1010.4 |
| 20260505033054 | 62 | 0 | 0.0 | 1.7 | 0.00 | 0.00 | 0.00 | 69 | 1010.1 |
| 20260505031551 | 63 | 0 | 0.0 | 1.7 | 0.00 | 0.00 | 0.00 | 68 | 1009.9 |
| 20260505030127 | 63 | 0 | 0.0 | 1.7 | 0.00 | 0.00 | 0.00 | 66 | 1009.7 |
| 20260505024608 | 65 | 21 | 0.9 | 2.6 | 0.00 | 0.00 | 0.00 | 64 | 1009.7 |
| 20260505023052 | 65 | 21 | 0.9 | 3.5 | 0.00 | 0.00 | 0.00 | 62 | 1009.6 |
| 20260505021552 | 67 | 21 | 0.0 | 2.6 | 0.00 | 0.00 | 0.00 | 60 | 1009.7 |
| 20260505020104 | 68 | 0 | 0.0 | 1.7 | 0.00 | 0.00 | 0.00 | 58 | 1009.9 |
| 20260505014553 | 68 | 0 | 0.0 | 1.7 | 0.00 | 0.00 | 0.00 | 60 | 1010.0 |
| 20260505013053 | 67 | 21 | 0.9 | 2.6 | 0.00 | 0.00 | 0.00 | 59 | 1010.2 |
| 20260505011557 | 68 | 21 | 1.7 | 3.5 | 0.00 | 0.00 | 0.00 | 58 | 1010.3 |
| 20260505010108 | 68 | 23 | 0.9 | 4.3 | 0.00 | 0.00 | 0.00 | 59 | 1010.4 |
| 20260505004620 | 69 | 19 | 1.7 | 4.3 | 0.00 | 0.00 | 0.00 | 58 | 1010.4 |
| 20260505003059 | 70 | 26 | 0.9 | 3.5 | 0.00 | 0.00 | 0.00 | 55 | 1010.4 |
| 20260505001552 | 70 | 0 | 1.7 | 4.3 | 0.00 | 0.00 | 0.00 | 55 | 1010.4 |
| 20260505000107 | 71 | 43 | 0.9 | 4.3 | 0.00 | 0.00 | 0.00 | 54 | 1010.4 |
| 20260504234554 | 71 | 68 | 0.9 | 3.5 | 0.00 | 0.00 | 0.00 | 50 | 1010.4 |
| 20260504233053 | 71 | 32 | 1.7 | 5.2 | 0.00 | 0.00 | 0.00 | 50 | 1010.6 |
| 20260504231620 | 71 | 266 | 1.7 | 8.7 | 0.00 | 0.00 | 0.00 | 52 | 1010.6 |
| 20260504230051 | 71 | 339 | 0.9 | 4.3 | 0.00 | 0.00 | 0.00 | 52 | 1010.6 |
| 20260504224552 | 72 | 352 | 0.9 | 3.5 | 0.00 | 0.00 | 0.00 | 50 | 1010.8 |
| 20260504223101 | 72 | 348 | 1.7 | 3.5 | 0.00 | 0.00 | 0.00 | 48 | 1010.8 |
| 20260504221641 | 75 | 262 | 0.9 | 6.1 | 0.00 | 0.00 | 0.00 | 43 | 1010.8 |
| 20260504220056 | 75 | 267 | 2.6 | 5.2 | 0.00 | 0.00 | 0.00 | 39 | 1010.8 |
| 20260504214554 | 77 | 306 | 0.9 | 3.5 | 0.00 | 0.00 | 0.00 | 39 | 1011.0 |
| 20260504213101 | 76 | 257 | 1.7 | 5.2 | 0.00 | 0.00 | 0.00 | 41 | 1011.2 |
| 20260504211553 | 78 | 298 | 0.0 | 3.5 | 0.00 | 0.00 | 0.00 | 39 | 1011.2 |
| 20260504210058 | 77 | 277 | 0.9 | 5.2 | 0.00 | 0.00 | 0.00 | 42 | 1011.1 |
| 20260504204600 | 76 | 0 | 0.9 | 5.2 | 0.00 | 0.00 | 0.00 | 42 | 1011.2 |
| 20260504203053 | 76 | 312 | 0.9 | 3.5 | 0.00 | 0.00 | 0.00 | 41 | 1011.1 |
| 20260504201554 | 76 | 270 | 0.9 | 3.5 | 0.00 | 0.00 | 0.00 | 40 | 1011.3 |
| 20260504200056 | 76 | 257 | 0.0 | 3.5 | 0.00 | 0.00 | 0.00 | 41 | 1011.3 |
| 20260504194558 | 74 | 248 | 3.5 | 6.1 | 0.00 | 0.00 | 0.00 | 44 | 1011.1 |
| 20260504193055 | 73 | 0 | 1.7 | 6.1 | 0.00 | 0.00 | 0.00 | 49 | 1011.3 |
| 20260504191615 | 71 | 242 | 2.6 | 4.3 | 0.00 | 0.00 | 0.00 | 50 | 1011.5 |
| 20260504190058 | 69 | 246 | 0.9 | 2.6 | 0.00 | 0.00 | 0.00 | 53 | 1011.4 |
| 20260504184601 | 70 | 247 | 3.5 | 7.0 | 0.00 | 0.00 | 0.00 | 52 | 1011.5 |
| 20260504183054 | 71 | 259 | 0.9 | 5.2 | 0.00 | 0.00 | 0.00 | 48 | 1011.5 |
| 20260504181551 | 70 | 0 | 0.0 | 3.5 | 0.00 | 0.00 | 0.00 | 49 | 1011.7 |
| 20260504180054 | 68 | 43 | 0.0 | 3.5 | 0.00 | 0.00 | 0.00 | 51 | 1011.6 |
| 20260504174553 | 67 | 342 | 0.0 | 3.5 | 0.00 | 0.00 | 0.00 | 53 | 1011.5 |
| 20260504173055 | 67 | 263 | 0.0 | 3.5 | 0.00 | 0.00 | 0.00 | 56 | 1011.5 |
| 20260504171553 | 66 | 0 | 0.9 | 6.1 | 0.00 | 0.00 | 0.00 | 59 | 1011.6 |
| 20260504140105 | 59 | 325 | 0.9 | 1.7 | 0.00 | 0.00 | 0.00 | 60 | 1010.2 |